Terminal Aerodrome Forecast
Issued by NWS Sterling, VA

Current Version | Previous Version | Graphics & Text | Print | Product List | Glossary On
Versions: 1 2 3 4 5 6 7 8 9 10 11 12 13 14 15 16 17 18 19 20 21
000
FTUS41 KLWX 221700 RRA
TAFIAD
TAF
KIAD 221742Z 2218/2324 33014G21KT 6SM -SHRA BKN020 OVC030
      TEMPO 2218/2220 4SM -RA BR
     FM222200 33018G25KT P6SM BKN035
     FM230300 33016KT P6SM BKN050
     FM231400 32016G23KT P6SM SCT050=

USA.gov is the U.S. government's official web portal to all federal, state and local government web resources and services.